Airfield :
LOGIN :

Register | Disclaimer

   EN    FR    IT 

 










Legend :    VFR   Marginal VFR   IFR   Intensive IFR   Very Intensive IFR
Visi :
Ceiling :
>= 8 km
>= 3000ft
5 to 8 km
1000 to 3000 ft
1500m to 5 km
500 to 1000 ft
800 to 1500m
200 to 500 ft
< 800m
< 200 ft
Symbols :   Thunderstorms  Fog  Heavy snow  Heavy precipitations  Wind > 20 kt
SIGMETs :     Misc.  Thunderstorms  Icing  Turbulence  Mountain Waves  Volcanic Ashes







- Airport Elevation : 297 ft
- IATA code : UIP
- Download approach charts


LFRQ - Quimper Pluguffan

CURRENT METAR :
  • 220030Z AUTO 29011KT 9999 ///TCU 09/07 Q1020

EXPIRED METARs :
  • 220000Z AUTO 29012KT 9999 FEW032/// SCT140/// ///TCU 09/07 Q1020
  • 212330Z AUTO 29015KT 9999 FEW044/// SCT052/// BKN062/// ///TCU 09/06 Q1020
  • 212300Z AUTO 29014KT 270V330 9999 SCT030/// SCT054/// BKN064/// ///TCU 10/07 Q1020
  • 212230Z AUTO 29013KT 9999 FEW037/// SCT092/// ///TCU 10/07 Q1020
  • 212200Z AUTO 28013KT 9999 ///CB 10/07 Q1020 NOSIG

TAF TAF LFRQ
Valid from the 21 at 18:00 until the 22 at 03:00 UTC


211700Z 2118/2203 28015KT 9999 FEW020TCU SCT033
TEMPO 2118/2121 26016G30KT 4000 SHRA BKN015CB
No reported NOTAMs for that airfield.
1 SIGMET reported for the Brest FIR (LFRR) :
 
Severe turbulence
LFRR SIGMET 9 VALID 212200/220200 LFPW
LFRR BREST FIR/UIR SEV TURB FCST WI N4915 W00615 - N5000 W00200 - N5000 W00015 - N4900 W00015 - N4815 W00345 SFC/FL060 STNR WKN=



MET'MAP, your aeronautical weather chart ! - Copyright ORBIFLY December 2007 - Disclaimer

ORBIFLY MET'MAP TEAM :

Programming & Development : Alexandra Zaïnal
Concept & Development : Baudouin d'Aumeries
Co-Development & Prog : Marc-Olivier Méhu
Technical & hardware support : Manuel Goepfert

Contact : metmap@orbifly.com




SOURCES & CREDITS :

   NOAA